Kaministiqua — CFN4612 — position and weather

sailwx.info

Track history (hours):
 
Tides and Currents Weather Stations Pressure Air Temp Water Temp Dewpoint Dewpoint Depression Visibility Wind Speed Wind Dir Waves Ship Positions

Kaministiqua

Last reported at 2015-Apr-18 06:32 UTC. Time now 2015-Apr-18 16:46 UTC.
Position N 43°11' W 079°12'.

Length 223 m; draft 8.2 m.

Type: Cargo ship. MMSI: 316009457.

Date/timePositionNaut miles runAvg speedWind from/ knotsBaromVisibWave heightAir tempDewpointWater temp
2015-Apr-18 06:32N 43°11' W 079°12'5 1.1
2015-Apr-18 01:20N 43°06' W 079°12'46 7.6
2015-Apr-17 19:15N 42°30' W 079°52'271 7.4
2015-Apr-16 06:25N 45°59' W 083°54'9 9.7
2015-Apr-16 05:27N 46°06' W 084°01'10 8.4
2015-Apr-16 04:19N 46°13' W 084°10'5 6.7
2015-Apr-16 03:33N 46°18' W 084°13'  
2015-Apr-12 12:18N 46°60' W 085°27'1010.9
2015-Apr-12 11:26N 47°00' W 085°13'66 3.2
2015-Apr-11 14:31N 46°12' W 084°07'8 7.9
2015-Apr-11 13:33N 46°06' W 084°01'9 8.6
2015-Apr-11 12:33N 45°59' W 083°53'5 5.3
2015-Apr-11 11:33N 45°56' W 083°60'0 0.0
2015-Apr-11 10:33N 45°56' W 083°60'0 0.0
2015-Apr-11 09:33N 45°56' W 083°60'0 0.0
2015-Apr-11 08:33N 45°56' W 083°60'0 0.0
2015-Apr-11 07:33N 45°56' W 083°60'0 0.0
2015-Apr-11 06:33N 45°56' W 083°60'1 0.8
2015-Apr-11 05:32N 45°55' W 083°59'  
Track history (hours):
 
Tides and Currents Weather Stations Pressure Air Temp Water Temp Dewpoint Dewpoint Depression Visibility Wind Speed Wind Dir Waves Ship Positions

Kaministiqua

Last reported at 2015-Apr-18 06:32 UTC. Time now 2015-Apr-18 16:46 UTC.
Position N 43°11' W 079°12'.

Length 223 m; draft 8.2 m.

Type: Cargo ship. MMSI: 316009457.

Date/timePositionNaut miles runAvg speedWind from/ knotsBaromVisibWave heightAir tempDewpointWater temp
2015-Apr-18 06:32N 43°11' W 079°12'5 1.1
2015-Apr-18 01:20N 43°06' W 079°12'46 7.6
2015-Apr-17 19:15N 42°30' W 079°52'271 7.4
2015-Apr-16 06:25N 45°59' W 083°54'9 9.7
2015-Apr-16 05:27N 46°06' W 084°01'10 8.4
2015-Apr-16 04:19N 46°13' W 084°10'5 6.7
2015-Apr-16 03:33N 46°18' W 084°13'  
2015-Apr-12 12:18N 46°60' W 085°27'1010.9
2015-Apr-12 11:26N 47°00' W 085°13'66 3.2
2015-Apr-11 14:31N 46°12' W 084°07'8 7.9
2015-Apr-11 13:33N 46°06' W 084°01'9 8.6
2015-Apr-11 12:33N 45°59' W 083°53'5 5.3
2015-Apr-11 11:33N 45°56' W 083°60'0 0.0
2015-Apr-11 10:33N 45°56' W 083°60'0 0.0
2015-Apr-11 09:33N 45°56' W 083°60'0 0.0
2015-Apr-11 08:33N 45°56' W 083°60'0 0.0
2015-Apr-11 07:33N 45°56' W 083°60'0 0.0
2015-Apr-11 06:33N 45°56' W 083°60'1 0.8
2015-Apr-11 05:32N 45°55' W 083°59'  

Dump ship's entire track history